Time;durP1;ratioP1;P1;durP2;ratioP2;P2;SDS_P1;SDS_P2;PMS_P1;PMS_P2;Temp;Humidity;BMP_temperature;BMP_pressure;BME280_temperature;BME280_humidity;BME280_pressure;Samples;Min_cycle;Max_cycle;Signal;HPM_P1;HPM_P2
2021/12/21 00:00:12;;;;;;;32.40;9.50;;;;;;;-0.21;74.23;102299.81;5035506;28;20501;-70
2021/12/21 00:02:39;;;;;;;16.25;7.78;;;;;;;-0.12;73.08;102299.97;5038545;28;20065;-70
2021/12/21 00:05:08;;;;;;;16.42;8.25;;;;;;;-0.35;74.50;102306.44;5037946;28;20087;-70
2021/12/21 00:07:34;;;;;;;20.17;8.88;;;;;;;-0.42;75.75;102306.31;5037659;28;20064;-70
2021/12/21 00:10:01;;;;;;;22.85;10.00;;;;;;;-0.89;77.66;102302.84;5037367;28;20154;-70
2021/12/21 00:12:31;;;;;;;27.15;10.15;;;;;;;-0.63;76.95;102304.22;5035478;28;20064;-70
2021/12/21 00:15:02;;;;;;;27.60;11.43;;;;;;;-0.67;77.17;102297.25;5038345;28;20045;-70
2021/12/21 00:20:26;;;;;;;22.52;9.98;;;;;;;-0.41;75.90;102296.03;5036383;28;20048;-70
2021/12/21 00:25:41;;;;;;;24.05;9.02;;;;;;;0.03;73.07;102296.78;5019341;28;20805;-70
2021/12/21 00:28:08;;;;;;;22.00;7.68;;;;;;;0.02;69.04;102296.75;5037601;28;20080;-70
2021/12/21 00:30:34;;;;;;;19.27;7.13;;;;;;;-0.16;68.51;102293.03;5037472;28;20061;-70
2021/12/21 00:33:00;;;;;;;19.85;8.00;;;;;;;-0.53;70.91;102294.09;5036381;28;20187;-70
2021/12/21 00:35:28;;;;;;;19.02;7.63;;;;;;;-0.56;71.30;102295.75;5036567;28;20053;-70
2021/12/21 00:37:56;;;;;;;16.00;8.57;;;;;;;-0.63;72.78;102288.75;5035958;28;20138;-70
2021/12/21 00:40:22;;;;;;;21.55;8.98;;;;;;;-0.50;72.19;102286.44;5035483;28;20517;-69
2021/12/21 00:42:49;;;;;;;23.27;8.90;;;;;;;-0.43;71.61;102289.09;5037853;28;20073;-69
2021/12/21 00:45:15;;;;;;;14.68;6.70;;;;;;;-0.45;71.03;102288.22;5035860;28;20142;-69
2021/12/21 00:47:47;;;;;;;16.48;6.97;;;;;;;-0.40;70.04;102284.00;5035978;28;20173;-69
2021/12/21 00:50:17;;;;;;;24.25;7.38;;;;;;;-0.56;69.49;102286.31;5038830;28;20757;-69
2021/12/21 00:52:46;;;;;;;20.25;7.35;;;;;;;-0.58;69.64;102285.41;5036940;28;20126;-69
2021/12/21 00:55:12;;;;;;;20.02;7.47;;;;;;;-0.65;69.35;102290.41;5038498;28;20144;-69
2021/12/21 00:57:38;;;;;;;18.75;6.85;;;;;;;-0.54;68.46;102284.63;5039024;28;20170;-69
2021/12/21 01:00:07;;;;;;;15.90;7.47;;;;;;;-0.68;69.52;102290.38;5037534;28;20067;-70
2021/12/21 01:02:34;;;;;;;18.65;8.15;;;;;;;-0.81;71.51;102288.41;5037777;28;20129;-70
2021/12/21 01:05:01;;;;;;;20.55;7.72;;;;;;;-0.87;70.86;102290.84;5036082;28;21074;-70
2021/12/21 01:07:33;;;;;;;16.20;7.97;;;;;;;-0.90;68.85;102296.81;5035923;28;20044;-69
2021/12/21 01:10:29;;;;;;;19.65;7.32;;;;;;;-1.04;68.92;102293.97;5038583;28;20060;-69
2021/12/21 01:12:59;;;;;;;18.98;8.13;;;;;;;-1.00;68.57;102292.34;5035957;28;20056;-70
2021/12/21 01:15:43;;;;;;;21.58;9.02;;;;;;;-1.02;70.06;102294.88;5038780;28;20053;-70
2021/12/21 01:18:15;;;;;;;19.02;8.85;;;;;;;-0.91;71.24;102297.66;5037347;28;20134;-69
2021/12/21 01:20:47;;;;;;;15.38;8.85;;;;;;;-1.23;74.76;102294.44;5037473;28;20045;-69
2021/12/21 01:26:04;;;;;;;24.13;11.10;;;;;;;-1.37;76.10;102289.81;5037325;28;20098;-70
2021/12/21 01:28:39;;;;;;;24.55;11.50;;;;;;;-1.21;75.85;102287.59;5036591;28;20060;-69
2021/12/21 01:31:19;;;;;;;31.48;13.38;;;;;;;-1.18;76.47;102287.66;5038485;28;20057;-69
2021/12/21 01:33:57;;;;;;;33.40;14.23;;;;;;;-1.22;77.17;102288.41;5036388;28;20052;-70
2021/12/21 01:36:32;;;;;;;26.92;11.93;;;;;;;-1.10;77.44;102290.38;5037516;28;20104;-70
2021/12/21 01:39:05;;;;;;;35.38;14.25;;;;;;;-0.95;77.50;102274.38;5037139;28;20183;-69
2021/12/21 01:41:44;;;;;;;37.33;13.35;;;;;;;-0.78;77.08;102273.00;5036415;28;20053;-70
2021/12/21 01:44:24;;;;;;;44.35;13.85;;;;;;;-0.76;77.33;102273.91;5037739;28;20544;-70
2021/12/21 01:49:39;;;;;;;35.42;14.00;;;;;;;-1.21;78.93;102269.56;5037794;28;20566;-69
2021/12/21 01:52:07;;;;;;;43.35;14.38;;;;;;;-1.04;78.48;102270.81;5038560;28;20043;-70
2021/12/21 01:54:33;;;;;;;29.88;13.30;;;;;;;-0.88;77.19;102260.78;5037420;28;20231;-70
2021/12/21 01:57:01;;;;;;;35.13;11.52;;;;;;;-0.61;76.37;102258.72;5037162;28;20069;-70
2021/12/21 01:59:28;;;;;;;34.63;12.93;;;;;;;-0.60;75.32;102253.63;5037423;28;20774;-70
2021/12/21 02:01:54;;;;;;;35.22;15.48;;;;;;;-1.08;77.22;102256.13;5037075;28;21524;-70
2021/12/21 02:04:21;;;;;;;40.58;14.88;;;;;;;-1.47;80.04;102253.59;5040554;28;20072;-70
2021/12/21 02:06:49;;;;;;;29.80;13.20;;;;;;;-1.04;78.15;102250.22;5040710;28;20056;-70
2021/12/21 02:09:16;;;;;;;36.75;12.75;;;;;;;-0.96;77.48;102246.91;5041202;28;20142;-70
2021/12/21 02:11:42;;;;;;;29.95;12.07;;;;;;;-0.72;75.76;102244.78;5041659;28;20072;-70
2021/12/21 02:14:10;;;;;;;31.90;13.27;;;;;;;-0.69;75.93;102247.41;5042908;28;21089;-70
2021/12/21 02:16:47;;;;;;;18.88;9.70;;;;;;;-0.55;74.98;102240.78;5039666;28;20053;-70
2021/12/21 02:19:21;;;;;;;34.60;10.05;;;;;;;-0.53;72.45;102229.69;5040119;28;20041;-70
2021/12/21 02:21:52;;;;;;;20.55;10.10;;;;;;;-0.70;72.64;102237.97;5042222;28;20128;-70
2021/12/21 02:24:24;;;;;;;23.83;9.82;;;;;;;-0.60;71.58;102232.13;5040687;28;20142;-69
2021/12/21 02:26:55;;;;;;;20.70;9.15;;;;;;;-0.57;70.01;102239.91;5039850;28;20049;-69
2021/12/21 02:29:28;;;;;;;22.80;8.10;;;;;;;-0.68;69.11;102234.56;5041251;28;20132;-70
2021/12/21 02:31:55;;;;;;;15.63;8.07;;;;;;;-0.62;67.63;102237.25;5039714;28;20056;-70
2021/12/21 02:34:23;;;;;;;14.82;8.15;;;;;;;-0.69;67.72;102234.53;5038296;28;20095;-70
2021/12/21 02:36:54;;;;;;;18.55;7.70;;;;;;;-0.79;67.10;102235.22;5038967;28;20575;-70
2021/12/21 02:39:21;;;;;;;22.77;8.85;;;;;;;-0.79;67.06;102232.63;5041716;28;20049;-70
2021/12/21 02:41:48;;;;;;;23.17;8.88;;;;;;;-0.79;67.86;102236.09;5041311;28;20130;-70
2021/12/21 02:44:15;;;;;;;19.08;8.40;;;;;;;-0.82;67.61;102230.00;5040046;28;20126;-69
2021/12/21 02:46:42;;;;;;;16.55;8.40;;;;;;;-0.92;68.67;102231.53;5039290;28;20041;-69
2021/12/21 02:49:10;;;;;;;18.60;8.23;;;;;;;-0.91;68.64;102235.84;5039248;28;20061;-70
2021/12/21 02:51:39;;;;;;;21.55;8.50;;;;;;;-1.06;69.20;102231.28;5041439;28;20186;-70
2021/12/21 02:54:07;;;;;;;19.08;8.30;;;;;;;-1.08;69.39;102227.81;5036755;28;20080;-70
2021/12/21 02:56:33;;;;;;;19.35;8.68;;;;;;;-1.09;68.77;102232.94;5033857;28;20056;-69
2021/12/21 02:58:59;;;;;;;20.45;8.98;;;;;;;-1.17;68.60;102227.63;5041764;28;20099;-70
2021/12/21 03:01:26;;;;;;;23.75;7.97;;;;;;;-1.22;68.94;102234.38;5038391;28;20092;-70
2021/12/21 03:03:53;;;;;;;24.23;8.32;;;;;;;-1.18;69.00;102230.16;5038875;28;20052;-70
2021/12/21 03:06:50;;;;;;;14.73;8.10;;;;;;;-1.21;69.07;102230.97;5040122;28;20126;-69
2021/12/21 03:09:36;;;;;;;23.33;7.15;;;;;;;-1.29;67.59;102227.38;5039507;28;20048;-69
2021/12/21 03:12:11;;;;;;;17.45;7.70;;;;;;;-1.38;67.51;102231.47;5038105;28;20053;-69
2021/12/21 03:14:37;;;;;;;20.42;7.65;;;;;;;-1.28;66.68;102221.41;5039571;28;20076;-70
2021/12/21 03:17:05;;;;;;;17.25;8.27;;;;;;;-1.31;67.25;102228.19;5039721;28;20513;-69
2021/12/21 03:19:31;;;;;;;22.33;7.50;;;;;;;-1.52;68.44;102223.47;5040219;28;20069;-70
2021/12/21 03:21:57;;;;;;;24.13;9.43;;;;;;;-1.62;69.41;102224.09;5039144;28;20076;-70
2021/12/21 03:24:25;;;;;;;21.35;8.38;;;;;;;-1.64;70.11;102228.34;5037305;28;20150;-69
2021/12/21 03:26:51;;;;;;;25.23;9.63;;;;;;;-1.67;70.34;102224.03;5037618;28;20566;-69
2021/12/21 03:29:18;;;;;;;20.13;8.48;;;;;;;-1.75;70.39;102228.13;5038313;28;20076;-69
2021/12/21 03:31:44;;;;;;;15.98;7.47;;;;;;;-1.84;69.77;102230.47;5040066;28;20068;-69
2021/12/21 03:34:11;;;;;;;20.80;7.30;;;;;;;-1.89;68.94;102231.22;5039714;28;20442;-69
2021/12/21 03:36:38;;;;;;;19.20;6.93;;;;;;;-1.94;67.52;102225.09;5039163;28;20076;-69
2021/12/21 03:39:07;;;;;;;14.15;6.75;;;;;;;-1.85;66.46;102230.47;5039058;28;20060;-69
2021/12/21 03:41:36;;;;;;;15.68;6.90;;;;;;;-1.85;66.09;102223.63;5037053;28;20083;-69
2021/12/21 03:44:03;;;;;;;13.82;6.55;;;;;;;-1.77;65.32;102229.78;5037544;28;20719;-69
2021/12/21 03:46:31;;;;;;;21.23;8.63;;;;;;;-1.96;65.80;102228.50;5039470;28;20048;-69
2021/12/21 03:49:01;;;;;;;16.77;7.55;;;;;;;-2.18;68.72;102227.97;5039924;28;20476;-70
2021/12/21 03:51:27;;;;;;;16.67;8.07;;;;;;;-2.12;68.46;102221.28;5038182;28;20096;-70
2021/12/21 03:53:54;;;;;;;23.10;7.80;;;;;;;-2.28;70.21;102232.00;5039578;28;20076;-70
2021/12/21 03:56:37;;;;;;;19.42;8.65;;;;;;;-2.24;70.46;102228.69;5037138;28;20069;-70
2021/12/21 03:59:05;;;;;;;21.17;9.32;;;;;;;-2.19;70.07;102232.25;5036515;28;20048;-69
2021/12/21 04:01:32;;;;;;;20.13;8.57;;;;;;;-2.16;68.98;102232.31;5038038;28;20059;-70
2021/12/21 04:03:58;;;;;;;19.70;7.45;;;;;;;-2.12;67.20;102234.13;5037668;28;20048;-70
2021/12/21 04:06:24;;;;;;;19.10;9.05;;;;;;;-2.20;68.15;102229.63;5038245;28;20046;-69
2021/12/21 04:08:51;;;;;;;19.02;7.82;;;;;;;-2.13;67.92;102223.81;5040121;28;20076;-69
2021/12/21 04:11:17;;;;;;;14.38;7.53;;;;;;;-2.29;66.80;102227.69;5037199;28;20076;-70
2021/12/21 04:13:43;;;;;;;20.17;8.15;;;;;;;-2.20;68.72;102222.78;5038621;28;20065;-70
2021/12/21 04:16:11;;;;;;;27.52;9.90;;;;;;;-2.14;70.04;102222.94;5038203;28;20064;-70
2021/12/21 04:18:39;;;;;;;23.15;9.88;;;;;;;-2.15;70.08;102223.78;5036937;28;20045;-70
2021/12/21 04:21:11;;;;;;;18.80;8.18;;;;;;;-2.17;69.81;102230.56;5035968;28;20391;-70
2021/12/21 04:23:38;;;;;;;19.98;7.45;;;;;;;-2.22;68.00;102226.16;5038654;28;20044;-70
2021/12/21 04:26:05;;;;;;;15.05;7.55;;;;;;;-2.18;67.73;102227.97;5036046;28;20080;-70
2021/12/21 04:28:31;;;;;;;27.05;8.82;;;;;;;-2.14;68.32;102225.50;5037462;28;20135;-70
2021/12/21 04:30:58;;;;;;;19.65;7.57;;;;;;;-2.34;69.18;102231.88;5036748;28;20505;-70
2021/12/21 04:33:25;;;;;;;23.30;8.55;;;;;;;-2.38;69.95;102242.91;5038206;28;20999;-70
2021/12/21 04:35:52;;;;;;;25.65;9.48;;;;;;;-2.27;69.90;102232.88;5039429;28;20053;-69
2021/12/21 04:38:22;;;;;;;18.95;9.07;;;;;;;-2.36;70.55;102230.06;5037465;28;20080;-69
2021/12/21 04:40:53;;;;;;;18.38;9.18;;;;;;;-2.33;70.26;102232.75;5038197;28;20057;-69
2021/12/21 04:43:19;;;;;;;22.77;9.43;;;;;;;-2.31;70.35;102231.94;5037693;28;20497;-69
2021/12/21 04:45:46;;;;;;;30.52;10.48;;;;;;;-2.27;70.53;102222.59;5037191;28;20080;-69
2021/12/21 04:48:12;;;;;;;21.13;9.45;;;;;;;-2.16;71.38;102219.47;5038021;28;20146;-69
2021/12/21 04:50:40;;;;;;;29.02;10.68;;;;;;;-2.30;73.39;102223.41;5039235;28;21364;-69
2021/12/21 04:53:07;;;;;;;23.70;10.80;;;;;;;-2.26;74.14;102214.94;5036199;28;20145;-69
2021/12/21 04:55:33;;;;;;;32.58;11.77;;;;;;;-1.94;73.48;102212.25;5038630;28;20540;-69
2021/12/21 04:57:59;;;;;;;33.20;12.57;;;;;;;-2.05;74.44;102210.31;5037022;28;20502;-69
2021/12/21 05:00:26;;;;;;;31.40;12.60;;;;;;;-2.11;76.19;102210.19;5036880;28;20138;-70
2021/12/21 05:02:52;;;;;;;26.38;12.48;;;;;;;-1.83;75.77;102215.91;5038020;28;20123;-70
2021/12/21 05:05:19;;;;;;;28.02;12.60;;;;;;;-1.57;75.17;102220.81;5038997;28;20099;-70
2021/12/21 05:07:51;;;;;;;39.97;16.45;;;;;;;-1.45;75.30;102215.06;5037964;28;20118;-70
2021/12/21 05:10:18;;;;;;;31.10;13.32;;;;;;;-1.50;75.97;102221.78;5038827;28;20076;-70
2021/12/21 05:12:45;;;;;;;32.03;14.40;;;;;;;-1.43;76.16;102228.81;5036926;28;20053;-70
2021/12/21 05:15:12;;;;;;;38.50;16.33;;;;;;;-1.95;78.93;102226.78;5038724;28;20049;-70
2021/12/21 05:17:38;;;;;;;41.85;15.00;;;;;;;-1.93;79.32;102221.69;5037862;28;20127;-69
2021/12/21 05:20:06;;;;;;;45.78;15.40;;;;;;;-1.89;79.39;102228.66;5037762;28;20138;-69
2021/12/21 05:22:33;;;;;;;31.80;14.93;;;;;;;-1.59;78.96;102224.19;5040054;28;20212;-69
2021/12/21 05:25:00;;;;;;;34.85;15.60;;;;;;;-1.67;79.51;102223.16;5038432;28;20519;-69
2021/12/21 05:27:27;;;;;;;44.33;15.27;;;;;;;-1.29;78.75;102224.81;5038057;28;20076;-69
2021/12/21 05:29:53;;;;;;;39.88;16.27;;;;;;;-1.27;78.94;102228.28;5037528;28;20114;-69
2021/12/21 05:32:19;;;;;;;47.42;18.05;;;;;;;-1.23;79.38;102224.94;5037911;28;20131;-69
2021/12/21 05:34:46;;;;;;;41.78;17.60;;;;;;;-1.44;80.11;102229.63;5037464;28;20088;-70
2021/12/21 05:37:12;;;;;;;45.42;17.75;;;;;;;-1.45;80.76;102232.19;5037446;28;20208;-69
2021/12/21 05:39:50;;;;;;;43.10;18.65;;;;;;;-1.09;79.99;102232.94;5042324;28;20092;-69
2021/12/21 05:42:18;;;;;;;48.45;17.13;;;;;;;-0.88;79.45;102229.88;5042786;28;20090;-69
2021/12/21 05:44:44;;;;;;;37.35;16.98;;;;;;;-0.91;79.53;102233.28;5040242;28;20517;-69
2021/12/21 05:47:10;;;;;;;39.13;17.95;;;;;;;-0.83;79.05;102224.00;5040321;28;20073;-70
2021/12/21 05:49:37;;;;;;;47.25;18.75;;;;;;;-1.08;80.49;102230.41;5039062;28;20099;-70
2021/12/21 05:52:04;;;;;;;42.50;17.55;;;;;;;-0.96;80.23;102234.03;5043349;28;20079;-70
2021/12/21 05:54:31;;;;;;;47.60;18.08;;;;;;;-0.74;79.48;102228.44;5041311;28;20102;-70
2021/12/21 05:56:57;;;;;;;50.75;18.25;;;;;;;-0.78;79.80;102231.81;5041400;28;20076;-70
2021/12/21 05:59:24;;;;;;;59.75;20.33;;;;;;;-0.47;79.00;102234.06;5039954;28;20084;-70
2021/12/21 06:01:51;;;;;;;45.92;18.55;;;;;;;-0.22;78.21;102225.06;5040961;28;20080;-70
2021/12/21 06:04:17;;;;;;;48.85;20.10;;;;;;;-0.19;77.45;102220.81;5040105;28;20485;-70
2021/12/21 06:06:43;;;;;;;41.15;19.77;;;;;;;-0.34;78.36;102225.72;5042987;28;20122;-69
2021/12/21 06:09:12;;;;;;;54.78;21.75;;;;;;;-0.58;79.05;102214.97;5041232;28;20459;-69
2021/12/21 06:11:45;;;;;;;47.25;19.38;;;;;;;-0.78;80.47;102229.22;5041786;28;20057;-69
2021/12/21 06:14:22;;;;;;;48.42;18.60;;;;;;;-0.85;80.57;102224.81;5038412;28;20049;-70
2021/12/21 06:25:34;;;;;;;62.90;19.42;;;;;;;-0.07;78.69;102215.81;5040672;28;20122;-70
2021/12/21 06:28:01;;;;;;;43.33;17.92;;;;;;;-0.18;77.60;102214.78;5042577;28;20053;-70
2021/12/21 06:30:27;;;;;;;38.50;17.42;;;;;;;-0.34;78.98;102205.09;5038888;28;20542;-70
2021/12/21 06:32:56;;;;;;;53.78;19.23;;;;;;;-0.01;77.92;102213.34;5042076;28;20147;-70
2021/12/21 06:35:23;;;;;;;47.67;20.17;;;;;;;-0.16;78.27;102209.66;5040659;28;20048;-68
2021/12/21 06:37:50;;;;;;;49.20;19.27;;;;;;;-0.25;78.73;102202.66;5039907;28;20077;-69
2021/12/21 06:40:17;;;;;;;43.33;20.98;;;;;;;-0.48;79.67;102205.72;5041029;28;20045;-69
2021/12/21 06:42:46;;;;;;;42.80;19.95;;;;;;;-0.04;78.53;102215.88;5039490;28;20081;-69
2021/12/21 06:45:25;;;;;;;41.53;19.13;;;;;;;0.41;76.83;102212.19;5040036;28;20139;-69
2021/12/21 06:53:21;;;;;;;40.05;19.10;;;;;;;0.20;77.43;102219.66;5040964;28;20064;-70
2021/12/21 06:55:48;;;;;;;45.28;18.13;;;;;;;0.45;76.34;102220.00;5041916;28;20166;-69
2021/12/21 06:58:15;;;;;;;42.83;17.83;;;;;;;0.80;74.76;102215.28;5039308;28;20080;-70
2021/12/21 07:00:42;;;;;;;46.83;19.05;;;;;;;0.72;74.81;102216.91;5037985;28;20060;-70
2021/12/21 07:03:09;;;;;;;35.50;17.58;;;;;;;0.89;74.72;102215.38;5039595;28;20099;-68
2021/12/21 07:05:36;;;;;;;45.53;18.40;;;;;;;1.00;74.34;102217.25;5036796;28;20108;-69
2021/12/21 07:08:04;;;;;;;50.20;17.27;;;;;;;1.04;73.66;102226.72;5037280;28;20134;-69
2021/12/21 07:10:32;;;;;;;41.55;16.67;;;;;;;1.11;73.36;102220.81;5036726;28;20127;-68
2021/12/21 07:18:30;;;;;;;42.30;17.20;;;;;;;0.94;73.88;102211.16;5036241;28;20091;-70
2021/12/21 07:20:58;;;;;;;36.90;17.58;;;;;;;1.04;73.32;102225.00;5036200;28;20071;-70
2021/12/21 07:23:26;;;;;;;39.67;16.60;;;;;;;0.98;73.74;102227.53;5035262;28;20773;-70
2021/12/21 07:25:52;;;;;;;41.03;17.83;;;;;;;1.21;73.06;102227.78;5036871;28;20056;-71
2021/12/21 07:28:19;;;;;;;45.30;17.38;;;;;;;1.23;72.62;102223.50;5035967;28;20464;-68
2021/12/21 07:30:47;;;;;;;40.58;16.23;;;;;;;1.38;71.85;102219.34;5035773;28;20084;-68
2021/12/21 07:33:14;;;;;;;43.78;17.15;;;;;;;1.37;72.44;102224.50;5037348;28;20144;-70
2021/12/21 07:35:40;;;;;;;34.72;16.45;;;;;;;1.48;71.93;102228.91;5037582;28;20266;-70
2021/12/21 07:38:07;;;;;;;39.13;17.05;;;;;;;1.32;72.09;102226.19;5038902;28;20052;-68
2021/12/21 07:40:34;;;;;;;39.83;16.70;;;;;;;1.14;73.05;102226.88;5038423;28;20138;-68
2021/12/21 07:43:01;;;;;;;35.58;17.90;;;;;;;1.31;72.95;102229.59;5039057;28;20312;-69
2021/12/21 07:45:28;;;;;;;38.03;17.40;;;;;;;1.29;72.67;102236.50;5038631;28;20063;-70
2021/12/21 07:47:55;;;;;;;36.92;17.83;;;;;;;1.44;72.45;102228.91;5038568;28;20146;-70
2021/12/21 07:50:21;;;;;;;42.42;18.35;;;;;;;1.50;72.22;102226.34;5040216;28;20048;-69
2021/12/21 07:52:50;;;;;;;45.17;19.17;;;;;;;1.24;72.63;102236.44;5040375;28;20068;-70
2021/12/21 07:55:17;;;;;;;40.75;19.02;;;;;;;1.04;73.90;102229.31;5038925;28;20057;-69
2021/12/21 07:57:44;;;;;;;41.38;20.02;;;;;;;0.86;74.13;102230.84;5039127;28;20068;-69
2021/12/21 08:00:12;;;;;;;51.95;21.55;;;;;;;0.52;76.29;102228.69;5040151;28;20064;-69
2021/12/21 08:02:40;;;;;;;51.58;19.08;;;;;;;0.74;75.42;102238.44;5038722;28;20046;-69
2021/12/21 08:05:08;;;;;;;49.60;21.02;;;;;;;0.87;74.54;102229.13;5036666;28;20514;-69
2021/12/21 08:07:39;;;;;;;48.13;20.23;;;;;;;1.06;74.63;102237.97;5037633;28;20678;-69
2021/12/21 08:10:19;;;;;;;53.13;20.23;;;;;;;1.24;73.81;102235.56;5040103;28;20146;-69
2021/12/21 08:12:47;;;;;;;43.80;20.25;;;;;;;1.21;73.50;102240.72;5039757;28;20077;-69
2021/12/21 08:15:13;;;;;;;41.42;20.40;;;;;;;1.22;73.87;102243.28;5039223;28;20529;-69
2021/12/21 08:17:40;;;;;;;46.85;20.15;;;;;;;1.36;73.81;102241.75;5039204;28;20469;-69
2021/12/21 08:20:07;;;;;;;50.65;21.83;;;;;;;1.06;74.75;102256.91;5038659;28;20127;-69
2021/12/21 08:22:33;;;;;;;46.30;20.23;;;;;;;0.58;76.10;102246.84;5040218;28;20072;-69
2021/12/21 08:24:59;;;;;;;60.97;23.77;;;;;;;0.48;77.38;102255.34;5036936;28;20127;-69
2021/12/21 08:27:26;;;;;;;53.40;23.42;;;;;;;0.38;78.03;102259.47;5037421;28;20154;-69
2021/12/21 08:29:53;;;;;;;56.80;23.63;;;;;;;0.64;77.79;102254.66;5040333;28;20077;-69
2021/12/21 08:32:20;;;;;;;60.05;24.33;;;;;;;0.75;77.44;102252.22;5038886;28;20069;-69
2021/12/21 08:34:46;;;;;;;66.25;24.98;;;;;;;1.06;77.09;102256.03;5038352;28;20099;-69
2021/12/21 08:37:12;;;;;;;61.17;23.90;;;;;;;1.29;76.20;102257.16;5039125;28;20406;-70
2021/12/21 08:39:40;;;;;;;51.40;22.85;;;;;;;1.18;76.77;102253.59;5036783;28;20126;-70
2021/12/21 08:42:08;;;;;;;47.80;21.90;;;;;;;1.15;77.12;102258.72;5037384;28;20413;-70
2021/12/21 08:44:35;;;;;;;53.75;21.05;;;;;;;1.54;75.56;102259.13;5037557;28;20081;-70
2021/12/21 08:47:03;;;;;;;60.78;23.80;;;;;;;1.52;75.53;102255.66;5039847;28;20049;-69
2021/12/21 08:49:30;;;;;;;49.45;21.33;;;;;;;1.40;76.39;102255.56;5037430;28;20112;-69
2021/12/21 08:51:57;;;;;;;56.45;24.08;;;;;;;1.61;75.73;102258.34;5038196;28;20512;-70
2021/12/21 08:54:24;;;;;;;55.92;22.00;;;;;;;1.73;75.29;102255.88;5038538;28;20130;-69
2021/12/21 08:56:51;;;;;;;54.10;22.67;;;;;;;1.78;74.86;102254.16;5038249;28;20123;-69
2021/12/21 08:59:18;;;;;;;60.60;22.92;;;;;;;1.79;74.75;102255.91;5037489;28;20083;-69
2021/12/21 09:01:45;;;;;;;54.00;22.40;;;;;;;1.85;75.08;102263.72;5039299;28;20077;-69
2021/12/21 09:04:15;;;;;;;48.92;22.85;;;;;;;2.08;74.33;102260.44;5038158;28;20076;-69
2021/12/21 09:06:41;;;;;;;55.97;22.85;;;;;;;2.05;74.48;102263.88;5038137;28;20053;-69
2021/12/21 09:09:07;;;;;;;51.38;21.40;;;;;;;1.95;74.80;102264.66;5037677;28;20056;-69
2021/12/21 09:11:35;;;;;;;49.72;23.27;;;;;;;2.18;74.98;102270.03;5036177;28;20076;-69
2021/12/21 09:14:01;;;;;;;56.08;23.27;;;;;;;2.46;73.77;102271.91;5038912;28;21390;-68
2021/12/21 09:16:27;;;;;;;55.72;22.73;;;;;;;2.18;75.23;102270.03;5038147;28;20068;-68
2021/12/21 09:18:54;;;;;;;57.40;22.63;;;;;;;2.53;74.38;102278.84;5037228;28;20077;-69
2021/12/21 09:21:22;;;;;;;56.33;23.90;;;;;;;2.62;74.09;102278.91;5036351;28;20114;-69
2021/12/21 09:23:48;;;;;;;53.25;23.80;;;;;;;2.64;74.41;102278.91;5036231;28;20523;-69
2021/12/21 09:26:15;;;;;;;51.97;23.35;;;;;;;2.74;73.56;102280.69;5038720;28;21315;-69
2021/12/21 09:28:41;;;;;;;51.88;24.05;;;;;;;2.84;73.28;102279.88;5036298;28;20143;-69
2021/12/21 09:31:08;;;;;;;54.53;23.48;;;;;;;2.87;73.55;102275.59;5035197;28;20126;-69
2021/12/21 09:33:34;;;;;;;58.92;24.88;;;;;;;2.76;73.35;102277.25;5036918;28;20080;-68
2021/12/21 09:36:00;;;;;;;53.92;24.90;;;;;;;2.75;73.96;102275.53;5034790;28;20092;-68
2021/12/21 09:38:28;;;;;;;64.90;26.38;;;;;;;2.99;73.01;102279.09;5036916;28;20077;-67
2021/12/21 09:40:55;;;;;;;60.42;26.10;;;;;;;3.04;72.83;102274.75;5034591;28;20268;-69
2021/12/21 09:43:22;;;;;;;50.28;23.27;;;;;;;3.18;72.12;102280.88;5037179;28;20052;-70
2021/12/21 09:45:49;;;;;;;46.45;22.98;;;;;;;3.02;72.08;102285.16;5034093;28;20053;-69
2021/12/21 09:48:16;;;;;;;58.17;24.55;;;;;;;3.21;71.39;102268.81;5035478;28;20049;-69
2021/12/21 09:50:42;;;;;;;50.00;23.38;;;;;;;3.08;71.58;102268.75;5035920;28;20064;-69
2021/12/21 09:53:09;;;;;;;53.65;23.50;;;;;;;2.81;72.11;102272.94;5035604;28;20063;-69
2021/12/21 09:55:37;;;;;;;52.33;23.05;;;;;;;3.14;71.58;102274.81;5036402;28;20118;-69
2021/12/21 09:58:04;;;;;;;54.55;24.75;;;;;;;2.69;72.71;102275.50;5033975;28;20044;-69
2021/12/21 10:00:33;;;;;;;54.05;24.35;;;;;;;2.80;72.94;102281.59;5037007;28;20072;-69
2021/12/21 10:03:04;;;;;;;53.75;24.60;;;;;;;3.00;72.38;102280.78;5035747;28;20053;-69
2021/12/21 10:05:32;;;;;;;57.03;25.30;;;;;;;3.21;72.58;102289.53;5037293;28;20056;-69
2021/12/21 10:08:01;;;;;;;47.53;23.10;;;;;;;2.98;72.66;102279.94;5034519;28;20106;-69
2021/12/21 10:10:32;;;;;;;50.28;25.83;;;;;;;2.84;73.50;102283.34;5034554;28;20053;-69
2021/12/21 10:13:07;;;;;;;46.60;22.70;;;;;;;3.07;73.27;102288.59;5035546;28;20525;-68
2021/12/21 10:15:38;;;;;;;48.65;22.45;;;;;;;3.15;72.46;102284.31;5035344;28;20084;-69
2021/12/21 10:18:05;;;;;;;48.03;22.40;;;;;;;3.35;71.58;102279.19;5035710;28;20211;-69
2021/12/21 10:20:34;;;;;;;61.33;23.05;;;;;;;3.36;71.56;102265.38;5036578;28;20049;-70
2021/12/21 10:23:01;;;;;;;44.60;23.00;;;;;;;3.41;70.99;102274.88;5034759;28;20081;-70
2021/12/21 10:25:28;;;;;;;48.00;22.67;;;;;;;3.34;70.93;102267.09;5039832;28;20497;-69
2021/12/21 10:27:54;;;;;;;55.33;24.17;;;;;;;3.18;71.69;102265.34;5039789;28;20552;-69
2021/12/21 10:30:22;;;;;;;56.42;23.50;;;;;;;3.43;71.30;102262.81;5038398;28;20536;-69
2021/12/21 10:32:53;;;;;;;47.47;22.20;;;;;;;3.77;70.58;102255.91;5039125;28;20080;-70
2021/12/21 10:35:21;;;;;;;41.63;19.20;;;;;;;3.82;71.19;102256.78;5040154;28;20210;-70
2021/12/21 10:37:51;;;;;;;37.22;20.42;;;;;;;3.68;70.70;102258.50;5039666;28;20193;-69
2021/12/21 10:40:25;;;;;;;38.47;19.83;;;;;;;3.71;71.44;102258.50;5038793;28;20140;-69
2021/12/21 10:42:57;;;;;;;40.63;20.75;;;;;;;3.78;70.25;102252.44;5038540;28;20133;-69
2021/12/21 10:45:29;;;;;;;50.70;22.77;;;;;;;4.02;69.98;102253.31;5039095;28;20521;-69
2021/12/21 10:47:56;;;;;;;48.72;22.95;;;;;;;4.59;69.10;102249.72;5038065;28;20102;-69
2021/12/21 10:50:23;;;;;;;44.85;21.08;;;;;;;5.04;66.94;102246.94;5039092;28;20069;-69
2021/12/21 10:52:52;;;;;;;42.78;20.52;;;;;;;5.67;65.55;102240.47;5039010;28;20044;-69
2021/12/21 10:55:26;;;;;;;33.70;20.40;;;;;;;6.21;62.83;102244.34;5037230;28;20049;-68
2021/12/21 10:58:01;;;;;;;33.40;18.85;;;;;;;6.82;62.48;102236.75;5037176;28;20474;-68
2021/12/21 11:00:29;;;;;;;31.95;18.20;;;;;;;7.38;60.79;102239.47;5039155;28;20080;-69
2021/12/21 11:02:56;;;;;;;31.50;16.75;;;;;;;7.57;59.33;102233.94;5038085;28;20073;-69
2021/12/21 11:05:23;;;;;;;25.52;16.95;;;;;;;7.64;58.92;102229.50;5040139;28;20037;-69
2021/12/21 11:07:54;;;;;;;23.08;15.75;;;;;;;7.60;57.85;102226.06;5038779;28;20412;-70
2021/12/21 11:10:26;;;;;;;33.08;16.33;;;;;;;8.06;57.02;102233.13;5039730;28;21037;-69
2021/12/21 11:12:54;;;;;;;30.45;16.30;;;;;;;8.13;58.05;102227.75;5037492;28;21047;-70
2021/12/21 11:15:28;;;;;;;29.95;16.58;;;;;;;8.62;57.41;102234.72;5037953;28;20146;-69
2021/12/21 11:17:56;;;;;;;29.52;15.68;;;;;;;8.50;55.92;102222.72;5036749;28;20053;-68
2021/12/21 11:20:23;;;;;;;30.85;15.18;;;;;;;8.43;56.83;102228.09;5038420;28;20094;-69
2021/12/21 11:22:51;;;;;;;21.13;13.55;;;;;;;8.46;57.00;102221.06;5037519;28;20111;-70
2021/12/21 11:25:17;;;;;;;22.50;13.82;;;;;;;8.31;57.27;102216.16;5036950;28;20575;-68
2021/12/21 11:27:44;;;;;;;24.20;13.50;;;;;;;8.41;56.34;102212.47;5037594;28;20127;-68
2021/12/21 11:30:13;;;;;;;23.63;12.63;;;;;;;8.66;55.59;102215.44;5038801;28;20164;-69
2021/12/21 11:32:43;;;;;;;22.95;13.27;;;;;;;8.88;55.07;102213.25;5037343;28;20089;-69
2021/12/21 11:37:58;;;;;;;20.10;11.45;;;;;;;8.58;56.61;102218.22;5037842;28;20133;-69
2021/12/21 11:40:29;;;;;;;31.30;12.82;;;;;;;8.58;56.19;102210.38;5037804;28;20048;-70
2021/12/21 11:43:09;;;;;;;22.23;11.27;;;;;;;8.55;55.38;102201.72;5038518;28;20130;-70
2021/12/21 11:45:41;;;;;;;25.60;11.50;;;;;;;8.57;55.07;102198.19;5035578;28;20077;-70
2021/12/21 11:48:17;;;;;;;19.52;10.48;;;;;;;8.15;56.99;102199.00;5038964;28;20510;-71
2021/12/21 11:50:47;;;;;;;17.45;9.68;;;;;;;7.80;56.57;102203.09;5040601;28;20523;-72
2021/12/21 11:53:17;;;;;;;18.95;9.75;;;;;;;7.83;59.29;102202.19;5039040;28;20068;-72